עמוד ראשי
METAR-TAF:

שדות תעופה :

סלוניקי, יוון

נמל התעופה הבינלאומי סלוניקי מקדוניה

קו רוחב: 40-31N, קו אורך: 022-58E, גובה: 8מטר

תצפית מזג אוויר נוכחית

הדו"ח נערך לפני 39דקות, בשעה 17:50 UTC
רוח 8קשר מכיוון דרום
טמפרטורת 29 צלסיוס
לחות 43%
לחץ 1011 hPa
ראות 10 קילומטר או יותר
ללא עננים שבסיסם נמוך מ 5000 רגל או קומולונימבוס

METAR: LGTS 241750Z 17008KT CAVOK 29/15 Q1011 NOSIG

זמן: 21:29 (18:29 UTC)

תחזית

הדו"ח נערך לפני 1 שעות ו 29דקות, בשעה 17:00 UTC
תחזית בתוקף מ 24 ב 18 UTC עד 25 ב 18 UTC
רוח 3קשר עם כיוונים משתנים
ראות 10 קילומטר או יותר
מעט עננים בגובה 3000רגל
יעשה מ
25 ב 08 UTC עד 25 ב 10 UTC
רוח 15קשר מכיוון דרום
הסתברות 30% :
זמנית מ -
25 ב 10 UTC עד 25 ב 15 UTC
ראות: 6000מטר
מעט עננים בגובה 1800רגל , קומולונימבוס.
עננים פזורים בגובה 2500רגל
ממטרי גשם
יעשה מ
25 ב 18 UTC עד 25 ב 20 UTC
רוח 3קשר עם כיוונים משתנים

TAF: LGTS 241700Z 2418/2518 VRB03KT 9999 FEW030 BECMG 2508/2510 17015KT PROB30 TEMPO 2510/2515 6000 SHRA FEW018CB SCT025 BECMG 2518/2520 VRB03KT

METAR-TAF

תצפיות ותחזיות מזג אוויר לגבי יותר מ- 4,000 שדות תעופה ברחבי העולם. דוחות METAR ו- TAF.

התחנות הזמינות מסומנות בנקודות צהובות ואדומות על גבי המפה.

העבר את העכבר לנקודה הצבעונית על מנת לראות את שם התחנה.

לאחר מכן, לחץ כדי לראות את תוכן ואת תחזיות מזג האוויר.

כדי לשנות את המפה: לחץ על הכפתורים הירוקים עם הפלוס השחור כדי להתקרב; על הכפתור הירוק עם המקף כדי להתרחק; או בחיצים הירוקים למפות סמוכות.


METAR-TAF: